sensor_id;sensor_type;location;lat;lon;timestamp;temperature;humidity
77985;DHT22;67177;47.240;-1.546;2023-05-10T06:29:36;13.80;74.50
77985;DHT22;67177;47.240;-1.546;2023-05-10T06:32:02;13.50;75.70
77985;DHT22;67177;47.240;-1.546;2023-05-10T06:34:28;13.60;76.40
77985;DHT22;67177;47.240;-1.546;2023-05-10T06:36:54;13.70;76.90
77985;DHT22;67177;47.240;-1.546;2023-05-10T06:39:20;13.70;77.10
77985;DHT22;67177;47.240;-1.546;2023-05-10T06:41:45;13.80;77.20
77985;DHT22;67177;47.240;-1.546;2023-05-10T06:44:11;14.00;77.10
77985;DHT22;67177;47.240;-1.546;2023-05-10T06:46:36;14.10;76.60
77985;DHT22;67177;47.240;-1.546;2023-05-10T06:49:02;14.30;76.10
77985;DHT22;67177;47.240;-1.546;2023-05-10T06:51:28;14.40;75.80
77985;DHT22;67177;47.240;-1.546;2023-05-10T06:53:54;14.40;75.90
77985;DHT22;67177;47.240;-1.546;2023-05-10T06:56:19;14.40;75.50
77985;DHT22;67177;47.240;-1.546;2023-05-10T06:58:50;14.40;75.60
77985;DHT22;67177;47.240;-1.546;2023-05-10T07:01:15;14.40;75.60
77985;DHT22;67177;47.240;-1.546;2023-05-10T07:03:41;14.40;75.80
77985;DHT22;67177;47.240;-1.546;2023-05-10T07:06:07;14.50;75.60
77985;DHT22;67177;47.240;-1.546;2023-05-10T07:08:35;14.60;75.60
77985;DHT22;67177;47.240;-1.546;2023-05-10T07:11:05;14.70;75.40
77985;DHT22;67177;47.240;-1.546;2023-05-10T07:13:35;14.80;74.70
77985;DHT22;67177;47.240;-1.546;2023-05-10T07:16:01;15.10;74.50
77985;DHT22;67177;47.240;-1.546;2023-05-10T07:18:27;15.20;74.00
77985;DHT22;67177;47.240;-1.546;2023-05-10T07:20:54;15.20;74.00
77985;DHT22;67177;47.240;-1.546;2023-05-10T07:23:19;15.20;73.70
77985;DHT22;67177;47.240;-1.546;2023-05-10T07:25:49;15.30;73.60
77985;DHT22;67177;47.240;-1.546;2023-05-10T07:28:16;15.40;73.10
77985;DHT22;67177;47.240;-1.546;2023-05-10T07:30:42;15.50;73.00
77985;DHT22;67177;47.240;-1.546;2023-05-10T07:33:09;15.70;72.80
77985;DHT22;67177;47.240;-1.546;2023-05-10T07:35:35;16.00;70.80
77985;DHT22;67177;47.240;-1.546;2023-05-10T07:38:01;16.30;70.00
77985;DHT22;67177;47.240;-1.546;2023-05-10T07:40:27;16.60;69.30
77985;DHT22;67177;47.240;-1.546;2023-05-10T07:42:53;16.90;67.80
77985;DHT22;67177;47.240;-1.546;2023-05-10T07:45:19;17.10;66.60
77985;DHT22;67177;47.240;-1.546;2023-05-10T07:47:45;17.10;64.40
77985;DHT22;67177;47.240;-1.546;2023-05-10T07:50:10;17.20;64.00
77985;DHT22;67177;47.240;-1.546;2023-05-10T07:52:36;17.30;63.40
77985;DHT22;67177;47.240;-1.546;2023-05-10T07:55:02;17.40;63.10
77985;DHT22;67177;47.240;-1.546;2023-05-10T07:57:27;17.40;63.00
77985;DHT22;67177;47.240;-1.546;2023-05-10T07:59:53;17.40;63.00
77985;DHT22;67177;47.240;-1.546;2023-05-10T08:02:18;17.20;63.20
77985;DHT22;67177;47.240;-1.546;2023-05-10T08:04:44;17.20;63.60
77985;DHT22;67177;47.240;-1.546;2023-05-10T08:07:10;17.30;63.60
77985;DHT22;67177;47.240;-1.546;2023-05-10T08:09:36;17.60;63.40
77985;DHT22;67177;47.240;-1.546;2023-05-10T08:12:02;17.80;62.70
77985;DHT22;67177;47.240;-1.546;2023-05-10T08:14:29;18.00;61.20
77985;DHT22;67177;47.240;-1.546;2023-05-10T08:16:55;18.10;60.70
77985;DHT22;67177;47.240;-1.546;2023-05-10T08:19:20;18.00;60.00
77985;DHT22;67177;47.240;-1.546;2023-05-10T08:21:47;17.90;59.70
77985;DHT22;67177;47.240;-1.546;2023-05-10T08:24:12;18.00;59.90
77985;DHT22;67177;47.240;-1.546;2023-05-10T08:26:38;17.80;59.80
77985;DHT22;67177;47.240;-1.546;2023-05-10T08:29:04;17.80;60.20
77985;DHT22;67177;47.240;-1.546;2023-05-10T08:31:30;17.70;60.30
77985;DHT22;67177;47.240;-1.546;2023-05-10T08:33:55;17.50;60.00
77985;DHT22;67177;47.240;-1.546;2023-05-10T08:36:21;17.50;59.90
77985;DHT22;67177;47.240;-1.546;2023-05-10T08:38:51;17.70;59.50
77985;DHT22;67177;47.240;-1.546;2023-05-10T08:41:20;18.00;59.40
77985;DHT22;67177;47.240;-1.546;2023-05-10T08:43:47;18.10;58.80
77985;DHT22;67177;47.240;-1.546;2023-05-10T08:46:17;18.00;58.40
77985;DHT22;67177;47.240;-1.546;2023-05-10T08:48:45;18.20;57.60
77985;DHT22;67177;47.240;-1.546;2023-05-10T08:51:18;18.30;57.50
77985;DHT22;67177;47.240;-1.546;2023-05-10T08:53:45;18.20;57.10
77985;DHT22;67177;47.240;-1.546;2023-05-10T08:56:11;18.10;57.00
77985;DHT22;67177;47.240;-1.546;2023-05-10T08:58:38;18.00;57.20
77985;DHT22;67177;47.240;-1.546;2023-05-10T09:01:05;18.00;57.30
77985;DHT22;67177;47.240;-1.546;2023-05-10T09:03:31;18.10;56.60
77985;DHT22;67177;47.240;-1.546;2023-05-10T09:05:58;18.10;56.80
77985;DHT22;67177;47.240;-1.546;2023-05-10T09:08:24;18.30;57.00
77985;DHT22;67177;47.240;-1.546;2023-05-10T09:10:54;18.50;57.00
77985;DHT22;67177;47.240;-1.546;2023-05-10T09:13:22;18.50;56.70
77985;DHT22;67177;47.240;-1.546;2023-05-10T09:15:48;18.70;56.80
77985;DHT22;67177;47.240;-1.546;2023-05-10T09:18:14;18.90;56.90
77985;DHT22;67177;47.240;-1.546;2023-05-10T09:20:40;18.90;56.40
77985;DHT22;67177;47.240;-1.546;2023-05-10T09:23:06;19.00;56.10
77985;DHT22;67177;47.240;-1.546;2023-05-10T09:25:32;19.10;56.20
77985;DHT22;67177;47.240;-1.546;2023-05-10T09:28:00;19.00;56.60
77985;DHT22;67177;47.240;-1.546;2023-05-10T09:30:30;18.90;56.30
77985;DHT22;67177;47.240;-1.546;2023-05-10T09:32:57;18.80;56.10
77985;DHT22;67177;47.240;-1.546;2023-05-10T09:35:25;18.60;56.40
77985;DHT22;67177;47.240;-1.546;2023-05-10T09:37:54;18.40;56.50
77985;DHT22;67177;47.240;-1.546;2023-05-10T09:40:21;18.50;56.90
77985;DHT22;67177;47.240;-1.546;2023-05-10T09:42:59;18.60;57.10
77985;DHT22;67177;47.240;-1.546;2023-05-10T09:45:29;18.70;57.30
77985;DHT22;67177;47.240;-1.546;2023-05-10T09:47:56;18.80;57.30
77985;DHT22;67177;47.240;-1.546;2023-05-10T09:50:22;18.60;57.60
77985;DHT22;67177;47.240;-1.546;2023-05-10T09:52:54;18.30;58.10
77985;DHT22;67177;47.240;-1.546;2023-05-10T09:55:25;18.10;58.60
77985;DHT22;67177;47.240;-1.546;2023-05-10T09:58:01;17.90;59.00
77985;DHT22;67177;47.240;-1.546;2023-05-10T10:00:28;18.00;59.30
77985;DHT22;67177;47.240;-1.546;2023-05-10T10:02:58;17.80;59.60
77985;DHT22;67177;47.240;-1.546;2023-05-10T10:05:30;17.70;60.10
77985;DHT22;67177;47.240;-1.546;2023-05-10T10:07:57;17.70;60.50
77985;DHT22;67177;47.240;-1.546;2023-05-10T10:10:25;17.70;60.70
77985;DHT22;67177;47.240;-1.546;2023-05-10T10:12:51;17.60;61.10
77985;DHT22;67177;47.240;-1.546;2023-05-10T10:15:17;17.40;62.40
77985;DHT22;67177;47.240;-1.546;2023-05-10T10:17:43;17.20;62.90
77985;DHT22;67177;47.240;-1.546;2023-05-10T10:20:09;17.20;63.40
77985;DHT22;67177;47.240;-1.546;2023-05-10T10:22:36;17.30;63.60
77985;DHT22;67177;47.240;-1.546;2023-05-10T10:25:03;17.20;63.80
77985;DHT22;67177;47.240;-1.546;2023-05-10T10:30:44;16.90;65.90
77985;DHT22;67177;47.240;-1.546;2023-05-10T10:33:38;16.80;66.50
77985;DHT22;67177;47.240;-1.546;2023-05-10T10:36:06;17.30;66.70
77985;DHT22;67177;47.240;-1.546;2023-05-10T10:38:55;17.80;66.00
77985;DHT22;67177;47.240;-1.546;2023-05-10T10:41:56;17.90;66.00
77985;DHT22;67177;47.240;-1.546;2023-05-10T10:50:02;17.40;66.20
77985;DHT22;67177;47.240;-1.546;2023-05-10T10:52:33;17.70;65.30
77985;DHT22;67177;47.240;-1.546;2023-05-10T10:55:03;17.80;64.90
77985;DHT22;67177;47.240;-1.546;2023-05-10T11:05:49;18.00;63.90
77985;DHT22;67177;47.240;-1.546;2023-05-10T11:08:25;18.10;63.50
77985;DHT22;67177;47.240;-1.546;2023-05-10T11:13:29;17.70;62.10
77985;DHT22;67177;47.240;-1.546;2023-05-10T11:15:56;17.50;62.70
77985;DHT22;67177;47.240;-1.546;2023-05-10T11:18:30;17.60;63.00
77985;DHT22;67177;47.240;-1.546;2023-05-10T11:21:00;17.70;63.30
77985;DHT22;67177;47.240;-1.546;2023-05-10T11:23:49;18.00;63.60
77985;DHT22;67177;47.240;-1.546;2023-05-10T11:26:16;18.30;63.70
77985;DHT22;67177;47.240;-1.546;2023-05-10T11:28:46;18.30;63.60
77985;DHT22;67177;47.240;-1.546;2023-05-10T11:31:16;18.20;63.50
77985;DHT22;67177;47.240;-1.546;2023-05-10T11:33:52;18.00;63.70
77985;DHT22;67177;47.240;-1.546;2023-05-10T11:36:23;17.80;64.10
77985;DHT22;67177;47.240;-1.546;2023-05-10T11:38:49;17.60;64.70
77985;DHT22;67177;47.240;-1.546;2023-05-10T11:41:17;17.50;64.60
77985;DHT22;67177;47.240;-1.546;2023-05-10T11:43:43;17.50;64.10
77985;DHT22;67177;47.240;-1.546;2023-05-10T11:46:12;17.50;64.10
77985;DHT22;67177;47.240;-1.546;2023-05-10T11:48:41;17.80;64.00
77985;DHT22;67177;47.240;-1.546;2023-05-10T11:51:08;18.00;63.90
77985;DHT22;67177;47.240;-1.546;2023-05-10T11:53:34;18.00;63.90
77985;DHT22;67177;47.240;-1.546;2023-05-10T11:56:18;18.20;63.40
77985;DHT22;67177;47.240;-1.546;2023-05-10T11:58:43;18.20;63.40
77985;DHT22;67177;47.240;-1.546;2023-05-10T12:01:10;18.10;63.00
77985;DHT22;67177;47.240;-1.546;2023-05-10T12:03:36;18.20;63.20
77985;DHT22;67177;47.240;-1.546;2023-05-10T12:06:03;18.30;62.90
77985;DHT22;67177;47.240;-1.546;2023-05-10T12:08:30;18.40;62.20
77985;DHT22;67177;47.240;-1.546;2023-05-10T12:11:09;18.50;61.10
77985;DHT22;67177;47.240;-1.546;2023-05-10T12:13:38;18.50;61.30
77985;DHT22;67177;47.240;-1.546;2023-05-10T12:16:25;18.50;61.20
77985;DHT22;67177;47.240;-1.546;2023-05-10T12:18:57;18.50;61.00
77985;DHT22;67177;47.240;-1.546;2023-05-10T12:21:23;18.50;61.00
77985;DHT22;67177;47.240;-1.546;2023-05-10T12:23:51;18.70;61.20
77985;DHT22;67177;47.240;-1.546;2023-05-10T12:26:17;18.80;60.50
77985;DHT22;67177;47.240;-1.546;2023-05-10T12:28:43;18.90;59.80
77985;DHT22;67177;47.240;-1.546;2023-05-10T12:31:08;18.80;59.30
77985;DHT22;67177;47.240;-1.546;2023-05-10T12:33:40;18.60;59.10
77985;DHT22;67177;47.240;-1.546;2023-05-10T12:36:13;18.50;58.90
77985;DHT22;67177;47.240;-1.546;2023-05-10T12:38:41;18.40;59.00
77985;DHT22;67177;47.240;-1.546;2023-05-10T12:41:13;18.30;59.10
77985;DHT22;67177;47.240;-1.546;2023-05-10T12:43:39;18.20;59.60
77985;DHT22;67177;47.240;-1.546;2023-05-10T12:46:13;18.40;59.50
77985;DHT22;67177;47.240;-1.546;2023-05-10T12:48:40;18.30;59.70
77985;DHT22;67177;47.240;-1.546;2023-05-10T12:51:07;18.30;59.40
77985;DHT22;67177;47.240;-1.546;2023-05-10T12:53:40;18.40;59.20
77985;DHT22;67177;47.240;-1.546;2023-05-10T12:56:06;18.30;59.60
77985;DHT22;67177;47.240;-1.546;2023-05-10T12:58:32;18.20;59.90
77985;DHT22;67177;47.240;-1.546;2023-05-10T13:00:58;18.20;60.50
77985;DHT22;67177;47.240;-1.546;2023-05-10T13:03:24;18.30;60.40
77985;DHT22;67177;47.240;-1.546;2023-05-10T13:05:50;18.60;59.80
77985;DHT22;67177;47.240;-1.546;2023-05-10T13:08:16;19.00;58.90
77985;DHT22;67177;47.240;-1.546;2023-05-10T13:10:42;19.40;58.00
77985;DHT22;67177;47.240;-1.546;2023-05-10T13:13:07;19.90;57.40
77985;DHT22;67177;47.240;-1.546;2023-05-10T13:15:34;20.20;56.20
77985;DHT22;67177;47.240;-1.546;2023-05-10T13:18:00;20.50;56.20
77985;DHT22;67177;47.240;-1.546;2023-05-10T13:20:25;20.40;56.30
77985;DHT22;67177;47.240;-1.546;2023-05-10T13:22:52;20.40;56.50
77985;DHT22;67177;47.240;-1.546;2023-05-10T13:25:18;20.60;55.50
77985;DHT22;67177;47.240;-1.546;2023-05-10T13:27:43;20.50;56.00
77985;DHT22;67177;47.240;-1.546;2023-05-10T13:30:09;19.90;55.40
77985;DHT22;67177;47.240;-1.546;2023-05-10T13:32:37;19.40;56.90
77985;DHT22;67177;47.240;-1.546;2023-05-10T13:35:03;18.80;58.80
77985;DHT22;67177;47.240;-1.546;2023-05-10T13:37:30;18.40;60.30
77985;DHT22;67177;47.240;-1.546;2023-05-10T13:39:56;18.10;60.90
77985;DHT22;67177;47.240;-1.546;2023-05-10T13:42:22;17.80;62.10
77985;DHT22;67177;47.240;-1.546;2023-05-10T13:44:49;17.60;63.20
77985;DHT22;67177;47.240;-1.546;2023-05-10T13:47:15;17.40;63.90
77985;DHT22;67177;47.240;-1.546;2023-05-10T13:49:41;17.30;64.90
77985;DHT22;67177;47.240;-1.546;2023-05-10T13:52:07;17.20;65.20
77985;DHT22;67177;47.240;-1.546;2023-05-10T13:54:41;17.20;65.80
77985;DHT22;67177;47.240;-1.546;2023-05-10T13:57:07;17.10;66.00
77985;DHT22;67177;47.240;-1.546;2023-05-10T13:59:33;16.90;66.30
77985;DHT22;67177;47.240;-1.546;2023-05-10T14:01:59;16.70;66.30
77985;DHT22;67177;47.240;-1.546;2023-05-10T14:04:28;16.60;66.30
77985;DHT22;67177;47.240;-1.546;2023-05-10T14:06:53;16.60;66.10
77985;DHT22;67177;47.240;-1.546;2023-05-10T14:09:19;16.40;65.70
77985;DHT22;67177;47.240;-1.546;2023-05-10T14:11:45;16.20;65.90
77985;DHT22;67177;47.240;-1.546;2023-05-10T14:14:12;16.10;66.10
77985;DHT22;67177;47.240;-1.546;2023-05-10T14:16:41;16.10;66.40
77985;DHT22;67177;47.240;-1.546;2023-05-10T14:19:07;16.30;66.50
77985;DHT22;67177;47.240;-1.546;2023-05-10T14:21:33;16.50;66.70
77985;DHT22;67177;47.240;-1.546;2023-05-10T14:23:59;16.80;66.70
77985;DHT22;67177;47.240;-1.546;2023-05-10T14:26:24;17.00;66.50
77985;DHT22;67177;47.240;-1.546;2023-05-10T14:28:50;17.10;65.60
77985;DHT22;67177;47.240;-1.546;2023-05-10T14:31:16;17.20;65.40
77985;DHT22;67177;47.240;-1.546;2023-05-10T14:33:42;17.30;65.60
77985;DHT22;67177;47.240;-1.546;2023-05-10T14:36:08;17.30;65.80
77985;DHT22;67177;47.240;-1.546;2023-05-10T14:38:34;17.50;65.90
77985;DHT22;67177;47.240;-1.546;2023-05-10T14:41:00;17.60;65.80
77985;DHT22;67177;47.240;-1.546;2023-05-10T14:43:25;17.60;65.70
77985;DHT22;67177;47.240;-1.546;2023-05-10T14:45:52;17.50;65.70
77985;DHT22;67177;47.240;-1.546;2023-05-10T14:48:18;17.30;66.10
77985;DHT22;67177;47.240;-1.546;2023-05-10T14:50:45;17.20;66.70
77985;DHT22;67177;47.240;-1.546;2023-05-10T14:53:11;17.10;66.90
77985;DHT22;67177;47.240;-1.546;2023-05-10T14:55:37;17.10;67.20
77985;DHT22;67177;47.240;-1.546;2023-05-10T14:58:03;17.20;67.50
77985;DHT22;67177;47.240;-1.546;2023-05-10T15:00:29;17.40;67.50
77985;DHT22;67177;47.240;-1.546;2023-05-10T15:02:55;17.60;67.30
77985;DHT22;67177;47.240;-1.546;2023-05-10T15:05:21;17.70;67.30
77985;DHT22;67177;47.240;-1.546;2023-05-10T15:07:47;17.80;67.00
77985;DHT22;67177;47.240;-1.546;2023-05-10T15:10:13;17.80;67.40
77985;DHT22;67177;47.240;-1.546;2023-05-10T15:12:39;17.90;66.50
77985;DHT22;67177;47.240;-1.546;2023-05-10T15:15:05;17.80;66.10
77985;DHT22;67177;47.240;-1.546;2023-05-10T15:17:31;17.70;65.60
77985;DHT22;67177;47.240;-1.546;2023-05-10T15:19:57;17.70;64.70
77985;DHT22;67177;47.240;-1.546;2023-05-10T15:22:23;17.80;63.10
77985;DHT22;67177;47.240;-1.546;2023-05-10T15:24:49;17.90;63.10
77985;DHT22;67177;47.240;-1.546;2023-05-10T15:27:15;18.00;63.20
77985;DHT22;67177;47.240;-1.546;2023-05-10T15:29:41;18.00;63.00
77985;DHT22;67177;47.240;-1.546;2023-05-10T15:32:06;18.10;62.90
77985;DHT22;67177;47.240;-1.546;2023-05-10T15:34:32;18.10;62.70
77985;DHT22;67177;47.240;-1.546;2023-05-10T15:36:58;18.00;62.50
77985;DHT22;67177;47.240;-1.546;2023-05-10T15:39:24;18.00;62.10
77985;DHT22;67177;47.240;-1.546;2023-05-10T15:41:49;18.00;61.00
77985;DHT22;67177;47.240;-1.546;2023-05-10T15:44:15;18.00;60.60
77985;DHT22;67177;47.240;-1.546;2023-05-10T15:46:41;17.90;60.00
77985;DHT22;67177;47.240;-1.546;2023-05-10T15:49:06;18.00;60.30
77985;DHT22;67177;47.240;-1.546;2023-05-10T15:51:32;18.00;59.80
77985;DHT22;67177;47.240;-1.546;2023-05-10T15:53:58;18.10;59.70
77985;DHT22;67177;47.240;-1.546;2023-05-10T15:56:24;18.30;59.70
77985;DHT22;67177;47.240;-1.546;2023-05-10T15:58:49;18.60;59.30
77985;DHT22;67177;47.240;-1.546;2023-05-10T16:01:15;18.70;59.30
77985;DHT22;67177;47.240;-1.546;2023-05-10T16:03:41;18.80;59.30
77985;DHT22;67177;47.240;-1.546;2023-05-10T16:06:07;18.70;58.80
77985;DHT22;67177;47.240;-1.546;2023-05-10T16:08:33;18.40;58.40
77985;DHT22;67177;47.240;-1.546;2023-05-10T16:10:59;18.10;59.10
77985;DHT22;67177;47.240;-1.546;2023-05-10T16:13:25;17.80;59.80
77985;DHT22;67177;47.240;-1.546;2023-05-10T16:15:51;17.60;60.50
77985;DHT22;67177;47.240;-1.546;2023-05-10T16:18:17;17.40;60.80
77985;DHT22;67177;47.240;-1.546;2023-05-10T16:20:43;17.20;60.60
77985;DHT22;67177;47.240;-1.546;2023-05-10T16:23:09;17.10;60.40
77985;DHT22;67177;47.240;-1.546;2023-05-10T16:25:35;16.90;60.70
77985;DHT22;67177;47.240;-1.546;2023-05-10T16:28:01;16.80;60.80
77985;DHT22;67177;47.240;-1.546;2023-05-10T16:30:26;16.60;60.80
77985;DHT22;67177;47.240;-1.546;2023-05-10T16:32:58;16.50;60.80
77985;DHT22;67177;47.240;-1.546;2023-05-10T16:35:24;16.40;60.90
77985;DHT22;67177;47.240;-1.546;2023-05-10T16:37:50;16.40;61.10
77985;DHT22;67177;47.240;-1.546;2023-05-10T16:40:16;16.30;61.40
77985;DHT22;67177;47.240;-1.546;2023-05-10T16:42:42;16.30;61.30
77985;DHT22;67177;47.240;-1.546;2023-05-10T16:45:07;16.20;61.50
77985;DHT22;67177;47.240;-1.546;2023-05-10T16:47:35;16.10;61.70
77985;DHT22;67177;47.240;-1.546;2023-05-10T16:50:01;16.20;61.80
77985;DHT22;67177;47.240;-1.546;2023-05-10T16:52:27;16.20;62.20
77985;DHT22;67177;47.240;-1.546;2023-05-10T16:54:54;16.20;62.50
77985;DHT22;67177;47.240;-1.546;2023-05-10T16:57:19;16.20;62.50
77985;DHT22;67177;47.240;-1.546;2023-05-10T16:59:45;16.20;62.80
77985;DHT22;67177;47.240;-1.546;2023-05-10T17:02:11;16.10;62.80
77985;DHT22;67177;47.240;-1.546;2023-05-10T17:04:37;16.10;62.80
77985;DHT22;67177;47.240;-1.546;2023-05-10T17:07:03;16.10;62.80
77985;DHT22;67177;47.240;-1.546;2023-05-10T17:09:29;16.10;62.90
77985;DHT22;67177;47.240;-1.546;2023-05-10T17:11:55;16.10;63.10
77985;DHT22;67177;47.240;-1.546;2023-05-10T17:14:20;16.00;63.10
77985;DHT22;67177;47.240;-1.546;2023-05-10T17:16:46;16.00;63.30
77985;DHT22;67177;47.240;-1.546;2023-05-10T17:19:17;16.00;63.30
77985;DHT22;67177;47.240;-1.546;2023-05-10T17:21:42;16.10;63.10
77985;DHT22;67177;47.240;-1.546;2023-05-10T17:24:08;16.20;63.10
77985;DHT22;67177;47.240;-1.546;2023-05-10T17:26:34;16.30;63.10
77985;DHT22;67177;47.240;-1.546;2023-05-10T17:28:59;16.30;63.20
77985;DHT22;67177;47.240;-1.546;2023-05-10T17:31:26;16.30;63.20
77985;DHT22;67177;47.240;-1.546;2023-05-10T17:33:52;16.40;63.00
77985;DHT22;67177;47.240;-1.546;2023-05-10T17:36:18;16.40;62.80
77985;DHT22;67177;47.240;-1.546;2023-05-10T17:38:43;16.50;62.70
77985;DHT22;67177;47.240;-1.546;2023-05-10T17:41:09;16.60;62.70
77985;DHT22;67177;47.240;-1.546;2023-05-10T17:43:35;16.60;62.50
77985;DHT22;67177;47.240;-1.546;2023-05-10T17:46:01;16.60;61.90
77985;DHT22;67177;47.240;-1.546;2023-05-10T17:48:26;16.60;61.10
77985;DHT22;67177;47.240;-1.546;2023-05-10T17:50:52;16.60;60.60
77985;DHT22;67177;47.240;-1.546;2023-05-10T17:53:18;16.70;59.90
77985;DHT22;67177;47.240;-1.546;2023-05-10T17:55:44;16.60;59.50
77985;DHT22;67177;47.240;-1.546;2023-05-10T17:58:10;16.60;59.50
77985;DHT22;67177;47.240;-1.546;2023-05-10T18:00:36;16.50;59.60
77985;DHT22;67177;47.240;-1.546;2023-05-10T18:03:03;16.50;59.20
77985;DHT22;67177;47.240;-1.546;2023-05-10T18:05:29;16.40;59.30
77985;DHT22;67177;47.240;-1.546;2023-05-10T18:07:55;16.30;59.40
77985;DHT22;67177;47.240;-1.546;2023-05-10T18:10:23;16.20;59.50
77985;DHT22;67177;47.240;-1.546;2023-05-10T18:12:48;16.20;59.70
77985;DHT22;67177;47.240;-1.546;2023-05-10T18:15:15;16.10;60.00
77985;DHT22;67177;47.240;-1.546;2023-05-10T18:17:41;16.00;60.10
77985;DHT22;67177;47.240;-1.546;2023-05-10T18:20:07;16.00;60.00
77985;DHT22;67177;47.240;-1.546;2023-05-10T18:22:34;15.90;60.20
77985;DHT22;67177;47.240;-1.546;2023-05-10T18:24:59;15.80;60.30
77985;DHT22;67177;47.240;-1.546;2023-05-10T18:27:25;15.80;60.50
77985;DHT22;67177;47.240;-1.546;2023-05-10T18:29:51;15.70;60.70
77985;DHT22;67177;47.240;-1.546;2023-05-10T18:32:16;15.70;61.00
77985;DHT22;67177;47.240;-1.546;2023-05-10T18:34:42;15.70;61.20
77985;DHT22;67177;47.240;-1.546;2023-05-10T18:37:08;15.70;61.30
77985;DHT22;67177;47.240;-1.546;2023-05-10T18:39:37;15.60;61.40
77985;DHT22;67177;47.240;-1.546;2023-05-10T18:42:04;15.60;61.40
77985;DHT22;67177;47.240;-1.546;2023-05-10T18:44:30;15.60;61.60
77985;DHT22;67177;47.240;-1.546;2023-05-10T18:46:55;15.60;61.70
77985;DHT22;67177;47.240;-1.546;2023-05-10T18:49:23;15.60;61.70
77985;DHT22;67177;47.240;-1.546;2023-05-10T18:51:50;15.60;61.80
77985;DHT22;67177;47.240;-1.546;2023-05-10T18:54:17;15.50;62.00
77985;DHT22;67177;47.240;-1.546;2023-05-10T18:56:42;15.50;62.20
77985;DHT22;67177;47.240;-1.546;2023-05-10T18:59:12;15.40;62.20
77985;DHT22;67177;47.240;-1.546;2023-05-10T19:01:40;15.40;62.40
77985;DHT22;67177;47.240;-1.546;2023-05-10T19:04:06;15.30;62.60
77985;DHT22;67177;47.240;-1.546;2023-05-10T19:06:32;15.30;62.80
77985;DHT22;67177;47.240;-1.546;2023-05-10T19:08:58;15.20;63.10
77985;DHT22;67177;47.240;-1.546;2023-05-10T19:11:24;15.20;63.10
77985;DHT22;67177;47.240;-1.546;2023-05-10T19:13:50;15.10;63.20
77985;DHT22;67177;47.240;-1.546;2023-05-10T19:16:16;15.10;63.30
77985;DHT22;67177;47.240;-1.546;2023-05-10T19:18:44;15.00;63.40
77985;DHT22;67177;47.240;-1.546;2023-05-10T19:21:11;15.00;63.50
77985;DHT22;67177;47.240;-1.546;2023-05-10T19:23:37;14.90;63.60
77985;DHT22;67177;47.240;-1.546;2023-05-10T19:26:04;14.90;63.70
77985;DHT22;67177;47.240;-1.546;2023-05-10T19:28:30;14.90;63.90
77985;DHT22;67177;47.240;-1.546;2023-05-10T19:30:56;14.80;64.00
77985;DHT22;67177;47.240;-1.546;2023-05-10T19:33:22;14.80;64.20
77985;DHT22;67177;47.240;-1.546;2023-05-10T19:35:51;14.80;64.40
77985;DHT22;67177;47.240;-1.546;2023-05-10T19:38:20;14.70;64.40
77985;DHT22;67177;47.240;-1.546;2023-05-10T19:40:49;14.70;64.50
77985;DHT22;67177;47.240;-1.546;2023-05-10T19:43:22;14.70;64.50
77985;DHT22;67177;47.240;-1.546;2023-05-10T19:45:48;14.60;64.50
77985;DHT22;67177;47.240;-1.546;2023-05-10T19:48:13;14.60;64.50
77985;DHT22;67177;47.240;-1.546;2023-05-10T19:50:39;14.60;64.50
77985;DHT22;67177;47.240;-1.546;2023-05-10T19:53:05;14.50;64.70
77985;DHT22;67177;47.240;-1.546;2023-05-10T19:55:31;14.50;64.70
77985;DHT22;67177;47.240;-1.546;2023-05-10T19:57:57;14.50;64.70
77985;DHT22;67177;47.240;-1.546;2023-05-10T20:00:25;14.50;64.70
77985;DHT22;67177;47.240;-1.546;2023-05-10T20:02:51;14.40;64.80
77985;DHT22;67177;47.240;-1.546;2023-05-10T20:05:17;14.40;65.00
77985;DHT22;67177;47.240;-1.546;2023-05-10T20:07:43;14.40;65.10
77985;DHT22;67177;47.240;-1.546;2023-05-10T20:10:09;14.50;65.20
77985;DHT22;67177;47.240;-1.546;2023-05-10T20:12:35;14.50;65.30
77985;DHT22;67177;47.240;-1.546;2023-05-10T20:15:01;14.40;65.30
77985;DHT22;67177;47.240;-1.546;2023-05-10T20:17:28;14.40;65.40
77985;DHT22;67177;47.240;-1.546;2023-05-10T20:19:53;14.40;65.60
77985;DHT22;67177;47.240;-1.546;2023-05-10T20:22:19;14.40;65.60
77985;DHT22;67177;47.240;-1.546;2023-05-10T20:24:45;14.50;65.50
77985;DHT22;67177;47.240;-1.546;2023-05-10T20:27:11;14.40;65.60
77985;DHT22;67177;47.240;-1.546;2023-05-10T20:29:37;14.40;65.50
77985;DHT22;67177;47.240;-1.546;2023-05-10T20:32:03;14.40;65.50
77985;DHT22;67177;47.240;-1.546;2023-05-10T20:34:28;14.30;65.60
77985;DHT22;67177;47.240;-1.546;2023-05-10T20:36:55;14.20;65.70
77985;DHT22;67177;47.240;-1.546;2023-05-10T20:39:21;14.20;65.80
77985;DHT22;67177;47.240;-1.546;2023-05-10T20:41:46;14.20;65.90
77985;DHT22;67177;47.240;-1.546;2023-05-10T20:44:12;14.10;66.00
77985;DHT22;67177;47.240;-1.546;2023-05-10T20:46:38;14.10;66.00
77985;DHT22;67177;47.240;-1.546;2023-05-10T20:49:04;14.10;66.20
77985;DHT22;67177;47.240;-1.546;2023-05-10T20:51:30;14.10;66.20
77985;DHT22;67177;47.240;-1.546;2023-05-10T20:53:57;14.10;66.20
77985;DHT22;67177;47.240;-1.546;2023-05-10T20:56:26;14.10;66.40
77985;DHT22;67177;47.240;-1.546;2023-05-10T20:58:51;14.10;66.40
77985;DHT22;67177;47.240;-1.546;2023-05-10T21:01:17;14.10;66.70
77985;DHT22;67177;47.240;-1.546;2023-05-10T21:03:43;14.00;66.70
77985;DHT22;67177;47.240;-1.546;2023-05-10T21:06:08;14.10;66.90
77985;DHT22;67177;47.240;-1.546;2023-05-10T21:08:34;14.10;67.00
77985;DHT22;67177;47.240;-1.546;2023-05-10T21:11:01;14.10;67.00
77985;DHT22;67177;47.240;-1.546;2023-05-10T21:13:29;14.10;67.10
77985;DHT22;67177;47.240;-1.546;2023-05-10T21:15:54;14.10;67.10
77985;DHT22;67177;47.240;-1.546;2023-05-10T21:18:20;14.10;67.20
77985;DHT22;67177;47.240;-1.546;2023-05-10T21:20:46;14.10;67.30
77985;DHT22;67177;47.240;-1.546;2023-05-10T21:23:12;14.10;67.40
77985;DHT22;67177;47.240;-1.546;2023-05-10T21:25:37;14.10;67.50
77985;DHT22;67177;47.240;-1.546;2023-05-10T21:28:03;14.10;67.50
77985;DHT22;67177;47.240;-1.546;2023-05-10T21:30:29;14.00;67.60
77985;DHT22;67177;47.240;-1.546;2023-05-10T21:32:55;14.00;67.70
77985;DHT22;67177;47.240;-1.546;2023-05-10T21:35:24;14.00;67.70
77985;DHT22;67177;47.240;-1.546;2023-05-10T21:37:50;14.00;67.80
77985;DHT22;67177;47.240;-1.546;2023-05-10T21:40:16;14.00;68.00
77985;DHT22;67177;47.240;-1.546;2023-05-10T21:42:42;14.00;68.10
77985;DHT22;67177;47.240;-1.546;2023-05-10T21:45:09;14.00;68.20
77985;DHT22;67177;47.240;-1.546;2023-05-10T21:47:34;14.10;68.30
77985;DHT22;67177;47.240;-1.546;2023-05-10T21:50:00;14.10;68.50
77985;DHT22;67177;47.240;-1.546;2023-05-10T21:52:26;14.10;68.50
77985;DHT22;67177;47.240;-1.546;2023-05-10T21:54:52;14.00;68.60
77985;DHT22;67177;47.240;-1.546;2023-05-10T21:57:17;14.10;68.70
77985;DHT22;67177;47.240;-1.546;2023-05-10T21:59:43;14.10;68.90
77985;DHT22;67177;47.240;-1.546;2023-05-10T22:02:08;14.10;69.00